Terminal Aerodrome Forecast
Issued by NWS

Home | Current Version | Previous Version | Graphics & Text | Print | Product List | Glossary On
Versions: 1 2 3 4 5 6 7 8 9 10 11 12 13 14 15 16 17 18 19 20
000
FTUS43 KFGF 202300
TAFBJI
TAF
KBJI 202320Z 2100/2124 21008KT P6SM SCT050
      TEMPO 2100/2102 5SM -TSRA BKN040CB
     FM210600 VRB06KT P6SM SCT040
     FM211400 17006KT P6SM SCT250=

USA.gov is the U.S. government's official web portal to all federal, state and local government web resources and services.